createdAt,value
2018-08-30T00:01:38.890Z,38.87
2018-08-30T00:04:08.334Z,41.20
2018-08-30T00:06:37.796Z,39.37
2018-08-30T00:09:07.738Z,40.30
2018-08-30T00:11:37.197Z,42.27
2018-08-30T00:14:06.641Z,38.77
2018-08-30T00:16:36.084Z,49.37
2018-08-30T00:19:05.533Z,39.77
2018-08-30T00:21:34.966Z,39.50
2018-08-30T00:24:04.535Z,36.43
2018-08-30T00:26:34.124Z,34.53
2018-08-30T00:29:03.622Z,39.63
2018-08-30T00:31:33.038Z,38.57
2018-08-30T00:34:02.517Z,38.43
2018-08-30T00:36:31.916Z,33.93
2018-08-30T00:39:01.369Z,32.27
2018-08-30T00:41:30.830Z,35.37
2018-08-30T00:44:00.216Z,30.53
2018-08-30T00:46:29.699Z,38.50
2018-08-30T00:48:59.152Z,30.60
2018-08-30T00:51:28.576Z,41.40
2018-08-30T00:53:57.982Z,34.60
2018-08-30T00:56:28.488Z,29.23
2018-08-30T00:58:57.989Z,27.97
2018-08-30T01:01:27.415Z,27.80
2018-08-30T01:03:56.891Z,29.47
2018-08-30T01:06:26.597Z,27.03
2018-08-30T01:08:56.032Z,19.83
2018-08-30T01:11:25.446Z,21.17
2018-08-30T01:13:54.847Z,25.70
2018-08-30T01:16:24.280Z,25.93
2018-08-30T01:18:53.756Z,26.80
2018-08-30T01:21:23.251Z,21.60
2018-08-30T01:23:53.208Z,18.83
2018-08-30T01:26:22.676Z,23.37
2018-08-30T01:28:52.095Z,22.10
2018-08-30T01:31:21.559Z,27.27
2018-08-30T01:33:51.029Z,28.07
2018-08-30T01:36:20.408Z,27.30
2018-08-30T01:38:49.798Z,25.37
2018-08-30T01:41:19.312Z,21.43
2018-08-30T01:43:48.731Z,25.10
2018-08-30T01:46:18.274Z,28.00
2018-08-30T01:48:47.637Z,23.53
2018-08-30T01:51:17.058Z,27.83
2018-08-30T01:53:46.500Z,21.63
2018-08-30T01:56:15.905Z,16.57
2018-08-30T01:58:45.361Z,14.33
2018-08-30T02:01:14.727Z,20.30
2018-08-30T02:03:44.135Z,17.83
2018-08-30T02:06:13.605Z,11.97
2018-08-30T02:08:43.037Z,13.03
2018-08-30T02:11:12.468Z,13.63
2018-08-30T02:13:41.844Z,16.83
2018-08-30T02:16:11.242Z,11.80
2018-08-30T02:18:40.663Z,13.13
2018-08-30T02:21:10.056Z,12.80
2018-08-30T02:23:39.547Z,9.80
2018-08-30T02:26:08.952Z,11.50
2018-08-30T02:28:38.405Z,14.57
2018-08-30T02:31:07.874Z,15.70
2018-08-30T02:33:37.347Z,12.87
2018-08-30T02:36:07.021Z,14.10
2018-08-30T02:38:36.455Z,14.97
2018-08-30T02:41:06.169Z,15.23
2018-08-30T02:43:35.643Z,14.57
2018-08-30T02:46:05.112Z,14.07
2018-08-30T02:48:34.598Z,13.70
2018-08-30T02:51:04.036Z,12.40
2018-08-30T02:53:33.544Z,10.00
2018-08-30T02:56:02.978Z,12.87
2018-08-30T02:58:32.369Z,11.67
2018-08-30T03:01:01.856Z,12.30
2018-08-30T03:03:31.331Z,11.07
2018-08-30T03:06:00.814Z,11.23
2018-08-30T03:08:30.277Z,13.30
2018-08-30T03:10:59.707Z,13.20
2018-08-30T03:13:29.257Z,11.13
2018-08-30T03:15:58.679Z,10.87
2018-08-30T03:18:28.215Z,15.47
2018-08-30T03:20:57.691Z,10.47
2018-08-30T03:23:27.132Z,10.90
2018-08-30T03:25:56.556Z,10.80
2018-08-30T03:28:25.975Z,16.90
2018-08-30T03:30:55.444Z,13.17
2018-08-30T03:33:24.767Z,8.90
2018-08-30T03:35:54.149Z,12.20
2018-08-30T03:38:23.621Z,11.43
2018-08-30T03:40:53.029Z,13.27
2018-08-30T03:43:22.466Z,10.20
2018-08-30T03:45:51.878Z,11.93
2018-08-30T03:48:21.303Z,12.70
2018-08-30T03:50:50.731Z,10.43
2018-08-30T03:53:20.146Z,8.80
2018-08-30T03:55:49.491Z,11.17
2018-08-30T03:58:18.859Z,19.70
2018-08-30T04:00:48.342Z,17.10
2018-08-30T04:03:17.743Z,9.40
2018-08-30T04:05:47.184Z,10.30
2018-08-30T04:08:16.583Z,8.50
2018-08-30T04:10:46.163Z,18.03
2018-08-30T04:13:15.597Z,11.73
2018-08-30T04:15:44.988Z,11.93
2018-08-30T04:18:14.445Z,12.77
2018-08-30T04:20:43.848Z,9.80
2018-08-30T04:23:13.265Z,8.90
2018-08-30T04:25:42.726Z,9.80
2018-08-30T04:28:12.128Z,11.83
2018-08-30T04:30:41.588Z,12.10
2018-08-30T04:33:11.248Z,9.90
2018-08-30T04:35:40.681Z,12.37
2018-08-30T04:38:10.116Z,22.60
2018-08-30T04:40:39.562Z,11.63
2018-08-30T04:43:09.068Z,14.57
2018-08-30T04:45:38.472Z,16.90
2018-08-30T04:48:07.876Z,10.73
2018-08-30T04:50:37.388Z,13.23
2018-08-30T04:53:06.791Z,13.07
2018-08-30T04:55:36.176Z,12.37
2018-08-30T04:58:05.854Z,11.70
2018-08-30T05:00:35.229Z,11.17
2018-08-30T05:03:04.669Z,14.23
2018-08-30T05:05:34.087Z,13.60
2018-08-30T05:08:03.514Z,14.33
2018-08-30T05:10:32.959Z,15.97
2018-08-30T05:13:02.369Z,12.70
2018-08-30T05:15:31.801Z,13.90
2018-08-30T05:18:01.294Z,14.53
2018-08-30T05:20:30.713Z,17.13
2018-08-30T05:23:00.200Z,14.07
2018-08-30T05:25:29.664Z,16.13
2018-08-30T05:27:59.084Z,13.20
2018-08-30T05:30:28.515Z,14.90
2018-08-30T05:32:58.032Z,13.87
2018-08-30T05:35:27.467Z,10.93
2018-08-30T05:37:56.920Z,15.33
2018-08-30T05:40:26.301Z,15.07
2018-08-30T05:42:55.711Z,18.40
2018-08-30T05:45:25.093Z,24.43
2018-08-30T05:47:54.486Z,32.20
2018-08-30T05:50:23.947Z,15.07
2018-08-30T05:52:53.404Z,17.40
2018-08-30T05:55:22.885Z,15.00
2018-08-30T05:57:52.341Z,15.57
2018-08-30T06:00:21.789Z,13.60
2018-08-30T06:02:51.190Z,17.00
2018-08-30T06:05:20.651Z,14.93
2018-08-30T06:07:50.060Z,12.03
2018-08-30T06:10:19.533Z,17.03
2018-08-30T06:12:48.985Z,16.93
2018-08-30T06:15:18.418Z,15.93
2018-08-30T06:17:47.965Z,21.47
2018-08-30T06:20:17.412Z,17.20
2018-08-30T06:22:46.901Z,13.20
2018-08-30T06:25:16.393Z,12.03
2018-08-30T06:27:45.833Z,16.03
2018-08-30T06:30:15.281Z,15.87
2018-08-30T06:32:44.772Z,19.17
2018-08-30T06:35:14.641Z,14.03
2018-08-30T06:37:44.085Z,15.30
2018-08-30T06:40:13.509Z,17.47
2018-08-30T06:42:42.940Z,12.67
2018-08-30T06:45:12.353Z,17.90
2018-08-30T06:47:41.851Z,16.00
2018-08-30T06:50:11.271Z,18.67
2018-08-30T06:52:40.635Z,21.30
2018-08-30T06:55:10.070Z,20.03
2018-08-30T06:57:39.494Z,14.67
2018-08-30T07:00:09.011Z,21.77
2018-08-30T07:02:38.461Z,25.43
2018-08-30T07:05:08.003Z,19.17
2018-08-30T07:07:37.434Z,20.93
2018-08-30T07:10:07.539Z,23.73
2018-08-30T07:12:36.977Z,25.97
2018-08-30T07:15:06.789Z,24.23
2018-08-30T07:17:36.157Z,23.73
2018-08-30T07:20:05.690Z,20.90
2018-08-30T07:22:35.202Z,26.00
2018-08-30T07:25:04.673Z,20.77
2018-08-30T07:27:34.095Z,17.50
2018-08-30T07:30:03.552Z,19.93
2018-08-30T07:32:32.958Z,20.70
2018-08-30T07:35:02.471Z,19.77
2018-08-30T07:37:31.766Z,20.23
2018-08-30T07:40:01.192Z,24.73
2018-08-30T07:42:30.825Z,20.20
2018-08-30T07:45:00.228Z,19.30
2018-08-30T07:47:29.704Z,20.40
2018-08-30T07:49:59.164Z,19.63
2018-08-30T07:52:28.626Z,21.57
2018-08-30T07:54:58.000Z,26.10
2018-08-30T07:57:27.432Z,22.30
2018-08-30T07:59:56.931Z,19.60
2018-08-30T08:02:26.343Z,20.30
2018-08-30T08:04:55.772Z,19.27
2018-08-30T08:07:25.240Z,20.23
2018-08-30T08:09:54.717Z,20.40
2018-08-30T08:12:24.157Z,18.40
2018-08-30T08:14:53.632Z,20.53
2018-08-30T08:17:23.121Z,21.23
2018-08-30T08:19:52.588Z,19.23
2018-08-30T08:22:21.987Z,17.13
2018-08-30T08:24:51.500Z,20.57
2018-08-30T08:27:20.873Z,21.70
2018-08-30T08:29:50.269Z,22.43
2018-08-30T08:32:19.686Z,18.60
2018-08-30T08:34:49.112Z,18.10
2018-08-30T08:37:18.537Z,19.50
2018-08-30T08:39:48.004Z,18.60
2018-08-30T08:42:17.453Z,20.50
2018-08-30T08:44:46.864Z,17.17
2018-08-30T08:47:16.537Z,16.40
2018-08-30T08:49:45.977Z,17.67
2018-08-30T08:52:15.447Z,15.73
2018-08-30T08:54:44.886Z,17.70
2018-08-30T08:57:14.302Z,22.63
2018-08-30T08:59:43.757Z,17.37
2018-08-30T09:02:13.194Z,18.27
2018-08-30T09:04:42.620Z,15.20
2018-08-30T09:07:12.205Z,13.73
2018-08-30T09:09:41.485Z,17.33
2018-08-30T09:12:10.886Z,15.13
2018-08-30T09:14:40.362Z,21.53
2018-08-30T09:17:09.812Z,13.23
2018-08-30T09:19:39.368Z,17.80
2018-08-30T09:22:08.789Z,19.37
2018-08-30T09:24:38.239Z,16.97
2018-08-30T09:27:07.691Z,16.37
2018-08-30T09:29:37.124Z,15.80
2018-08-30T09:32:06.879Z,16.90
2018-08-30T09:34:36.384Z,16.97
2018-08-30T09:37:05.929Z,16.00
2018-08-30T09:39:35.383Z,12.77
2018-08-30T09:42:04.873Z,17.30
2018-08-30T09:44:34.292Z,13.47
2018-08-30T09:47:03.753Z,18.27
2018-08-30T09:49:33.198Z,16.07
2018-08-30T09:52:02.703Z,15.63
2018-08-30T09:54:32.152Z,18.97
2018-08-30T09:57:01.763Z,17.30
2018-08-30T09:59:31.111Z,17.10
2018-08-30T10:02:05.711Z,16.97
2018-08-30T10:04:35.118Z,15.27
2018-08-30T10:07:04.582Z,15.20
2018-08-30T10:09:34.049Z,18.03
2018-08-30T10:12:03.582Z,17.07
2018-08-30T10:14:32.978Z,15.03
2018-08-30T10:17:02.460Z,18.13
2018-08-30T10:19:31.884Z,17.57
2018-08-30T10:22:01.328Z,15.10
2018-08-30T10:24:30.753Z,12.77
2018-08-30T10:27:00.272Z,13.63
2018-08-30T10:29:29.701Z,13.53
2018-08-30T10:31:59.195Z,14.63
2018-08-30T10:34:28.619Z,16.33
2018-08-30T10:36:58.079Z,14.63
2018-08-30T10:39:27.455Z,17.53
2018-08-30T10:41:56.873Z,11.70
2018-08-30T10:44:26.278Z,13.47
2018-08-30T10:46:55.658Z,13.70
2018-08-30T10:49:25.221Z,13.00
2018-08-30T10:51:54.671Z,15.47
2018-08-30T10:54:24.070Z,14.90
2018-08-30T10:56:53.466Z,15.20
2018-08-30T10:59:22.890Z,14.23
2018-08-30T11:01:52.401Z,13.53
2018-08-30T11:04:21.957Z,12.03
2018-08-30T11:06:51.482Z,17.57
2018-08-30T11:09:20.974Z,14.93
2018-08-30T11:11:50.389Z,14.83
2018-08-30T11:14:19.929Z,11.47
2018-08-30T11:16:49.398Z,13.67
2018-08-30T11:19:18.882Z,14.23
2018-08-30T11:21:48.361Z,13.47
2018-08-30T11:24:17.794Z,17.97
2018-08-30T11:26:47.206Z,13.57
2018-08-30T11:29:16.623Z,15.90
2018-08-30T11:31:46.139Z,13.10
2018-08-30T11:34:15.555Z,15.37
2018-08-30T11:36:45.004Z,12.90
2018-08-30T11:39:14.430Z,25.50
2018-08-30T11:41:44.040Z,12.47
2018-08-30T11:44:13.485Z,14.70
2018-08-30T11:46:42.940Z,12.57
2018-08-30T11:49:12.369Z,14.40
2018-08-30T11:51:41.876Z,11.30
2018-08-30T11:54:11.299Z,10.77
2018-08-30T11:56:40.698Z,12.20
2018-08-30T11:59:10.195Z,16.00
2018-08-30T12:01:39.749Z,17.90
2018-08-30T12:04:10.377Z,10.83
2018-08-30T12:06:39.898Z,13.13
2018-08-30T12:09:10.406Z,12.30
2018-08-30T12:11:41.269Z,11.50
2018-08-30T12:14:10.821Z,13.10
2018-08-30T12:16:40.220Z,14.43
2018-08-30T12:19:09.771Z,11.70
2018-08-30T12:21:39.196Z,12.97
2018-08-30T12:24:08.632Z,12.63
2018-08-30T12:26:38.080Z,11.23
2018-08-30T12:29:07.614Z,17.37
2018-08-30T12:31:37.113Z,13.70
2018-08-30T12:34:06.817Z,11.67
2018-08-30T12:36:36.152Z,15.20
2018-08-30T12:39:07.984Z,13.67
2018-08-30T12:41:37.472Z,11.80
2018-08-30T12:44:07.156Z,12.70
2018-08-30T12:46:36.724Z,13.27
2018-08-30T12:49:06.392Z,14.60
2018-08-30T12:51:36.070Z,12.73
2018-08-30T12:54:05.624Z,14.33
2018-08-30T12:56:35.138Z,9.47
2018-08-30T12:59:09.833Z,15.53
2018-08-30T13:01:39.268Z,13.33
2018-08-30T13:04:08.841Z,11.10
2018-08-30T13:06:42.371Z,10.63
2018-08-30T13:09:12.079Z,11.13
2018-08-30T13:11:41.198Z,16.70
2018-08-30T13:14:11.135Z,11.60
2018-08-30T13:16:40.613Z,11.53
2018-08-30T13:19:10.245Z,10.30
2018-08-30T13:21:39.673Z,10.93
2018-08-30T13:24:09.094Z,9.10
2018-08-30T13:26:38.607Z,8.90
2018-08-30T13:29:08.640Z,10.73
2018-08-30T13:31:38.174Z,10.33
2018-08-30T13:34:07.609Z,8.30
2018-08-30T13:36:36.905Z,12.97
2018-08-30T13:39:09.901Z,13.07
2018-08-30T13:41:39.558Z,9.80
2018-08-30T13:44:10.493Z,10.90
2018-08-30T13:46:41.083Z,19.50
2018-08-30T13:49:11.455Z,9.90
2018-08-30T13:51:41.062Z,8.43
2018-08-30T13:54:10.303Z,11.17
2018-08-30T13:56:40.040Z,9.10
2018-08-30T13:59:09.442Z,10.53
2018-08-30T14:01:38.913Z,10.30
2018-08-30T14:04:08.276Z,9.97
2018-08-30T14:06:37.560Z,9.97
2018-08-30T14:09:07.575Z,9.70
2018-08-30T14:11:37.069Z,11.13
2018-08-30T14:14:06.541Z,8.33
2018-08-30T14:16:35.679Z,9.13
2018-08-30T14:19:05.733Z,10.17
2018-08-30T14:21:34.991Z,11.20
2018-08-30T14:24:04.401Z,9.03
2018-08-30T14:26:33.942Z,24.93
2018-08-30T14:29:03.223Z,11.90
2018-08-30T14:31:32.628Z,8.93
2018-08-30T14:34:02.096Z,12.53
2018-08-30T14:36:31.540Z,10.57
2018-08-30T14:39:01.127Z,10.33
2018-08-30T14:41:30.498Z,11.40
2018-08-30T14:43:59.882Z,8.57
2018-08-30T14:46:29.308Z,8.10
2018-08-30T14:48:58.720Z,9.87
2018-08-30T14:51:28.367Z,8.20
2018-08-30T14:53:57.871Z,10.07
2018-08-30T14:56:27.332Z,7.40
2018-08-30T14:58:58.791Z,9.17
2018-08-30T15:01:28.681Z,9.70
2018-08-30T15:03:58.174Z,7.90
2018-08-30T15:06:27.589Z,7.63
2018-08-30T15:08:57.045Z,10.47
2018-08-30T15:11:26.575Z,7.40
2018-08-30T15:13:55.957Z,7.57
2018-08-30T15:16:26.453Z,6.90
2018-08-30T15:18:55.888Z,6.47
2018-08-30T15:21:26.351Z,10.63
2018-08-30T15:23:55.805Z,5.83
2018-08-30T15:26:25.358Z,9.60
2018-08-30T15:28:55.345Z,7.03
2018-08-30T15:31:24.784Z,7.00
2018-08-30T15:33:54.278Z,6.00
2018-08-30T15:36:23.629Z,6.13
2018-08-30T15:38:53.084Z,7.03
2018-08-30T15:41:22.548Z,6.67
2018-08-30T15:43:51.988Z,10.10
2018-08-30T15:46:21.448Z,6.27
2018-08-30T15:48:51.508Z,8.30
2018-08-30T15:51:20.812Z,18.83
2018-08-30T15:53:50.308Z,15.83
2018-08-30T15:56:19.795Z,7.57
2018-08-30T15:58:49.374Z,9.20
2018-08-30T16:01:18.827Z,4.07
2018-08-30T16:03:48.359Z,7.33
2018-08-30T16:06:17.841Z,7.17
2018-08-30T16:08:47.290Z,9.23
2018-08-30T16:11:16.877Z,12.00
2018-08-30T16:13:47.640Z,5.50
2018-08-30T16:16:17.669Z,11.10
2018-08-30T16:18:47.268Z,6.20
2018-08-30T16:21:16.856Z,12.73
2018-08-30T16:23:46.443Z,8.90
2018-08-30T16:26:15.881Z,83.77
2018-08-30T16:28:45.336Z,17.20
2018-08-30T16:31:14.897Z,7.90
2018-08-30T16:33:44.290Z,8.63
2018-08-30T16:36:13.740Z,6.40
2018-08-30T16:38:43.227Z,14.60
2018-08-30T16:41:12.847Z,5.20
2018-08-30T16:43:42.249Z,5.20
2018-08-30T16:46:11.657Z,5.03
2018-08-30T16:48:41.281Z,7.03
2018-08-30T16:51:10.875Z,11.90
2018-08-30T16:53:40.234Z,7.27
2018-08-30T16:56:09.623Z,5.90
2018-08-30T16:58:39.087Z,7.07
2018-08-30T17:01:08.560Z,9.50
2018-08-30T17:03:38.608Z,7.23
2018-08-30T17:06:08.543Z,7.30
2018-08-30T17:08:38.217Z,7.63
2018-08-30T17:11:07.576Z,7.00
2018-08-30T17:13:36.984Z,7.30
2018-08-30T17:16:06.449Z,13.87
2018-08-30T17:18:36.037Z,8.03
2018-08-30T17:21:05.546Z,5.73
2018-08-30T17:23:35.176Z,7.83
2018-08-30T17:26:04.664Z,4.83
2018-08-30T17:28:34.149Z,9.63
2018-08-30T17:31:03.760Z,5.53
2018-08-30T17:33:33.241Z,7.20
2018-08-30T17:36:02.715Z,5.47
2018-08-30T17:38:32.167Z,6.30
2018-08-30T17:41:01.636Z,7.23
2018-08-30T17:43:31.125Z,14.03
2018-08-30T17:46:00.559Z,4.63
2018-08-30T17:48:30.095Z,6.97
2018-08-30T17:50:59.652Z,4.60
2018-08-30T17:53:29.172Z,5.10
2018-08-30T17:55:58.752Z,8.33
2018-08-30T17:58:28.137Z,7.30
2018-08-30T18:00:57.627Z,6.87
2018-08-30T18:03:27.133Z,5.67
2018-08-30T18:05:56.533Z,6.20
2018-08-30T18:08:25.972Z,7.83
2018-08-30T18:10:55.625Z,8.40
2018-08-30T18:13:25.121Z,12.63
2018-08-30T18:15:54.514Z,9.73
2018-08-30T18:18:24.043Z,7.60
2018-08-30T18:20:53.411Z,7.57
2018-08-30T18:23:23.073Z,12.23
2018-08-30T18:25:52.513Z,13.60
2018-08-30T18:28:21.950Z,16.20
2018-08-30T18:30:51.865Z,8.43
2018-08-30T18:33:21.822Z,8.23
2018-08-30T18:35:51.436Z,12.33
2018-08-30T18:38:21.075Z,6.43
2018-08-30T18:40:50.622Z,8.83
2018-08-30T18:43:20.068Z,13.43
2018-08-30T18:45:49.941Z,6.27
2018-08-30T18:48:19.548Z,5.43
2018-08-30T18:50:48.975Z,6.43
2018-08-30T18:53:18.400Z,5.07
2018-08-30T18:55:47.971Z,7.63
2018-08-30T18:58:17.481Z,7.03
2018-08-30T19:00:46.884Z,6.20
2018-08-30T19:03:16.419Z,7.23
2018-08-30T19:05:45.772Z,5.03
2018-08-30T19:08:15.633Z,11.13
2018-08-30T19:10:45.000Z,7.43
2018-08-30T19:13:14.472Z,5.57
2018-08-30T19:15:49.012Z,12.43
2018-08-30T19:18:23.730Z,6.50
2018-08-30T19:20:53.187Z,10.90
2018-08-30T19:23:22.610Z,9.50
2018-08-30T19:25:52.071Z,9.37
2018-08-30T19:28:21.468Z,8.60
2018-08-30T19:30:52.355Z,8.53
2018-08-30T19:33:23.736Z,8.40
2018-08-30T19:35:58.709Z,7.10
2018-08-30T19:38:28.666Z,12.20
2018-08-30T19:41:04.466Z,5.70
2018-08-30T19:43:34.405Z,11.70
2018-08-30T19:46:05.159Z,12.27
2018-08-30T19:48:35.867Z,6.47
2018-08-30T19:51:05.612Z,8.97
2018-08-30T19:53:35.067Z,6.07
2018-08-30T19:56:04.598Z,9.23
2018-08-30T19:58:34.035Z,17.47
2018-08-30T20:01:03.453Z,7.70
2018-08-30T20:03:32.868Z,5.33
2018-08-30T20:06:02.286Z,7.10
2018-08-30T20:08:31.762Z,5.80
2018-08-30T20:11:01.348Z,9.73
2018-08-30T20:13:30.933Z,7.53
2018-08-30T20:16:00.375Z,11.10
2018-08-30T20:18:29.841Z,7.80
2018-08-30T20:20:59.279Z,6.17
2018-08-30T20:23:28.865Z,6.70
2018-08-30T20:25:58.335Z,6.93
2018-08-30T20:28:29.941Z,6.53
2018-08-30T20:30:59.366Z,5.00
2018-08-30T20:33:28.915Z,14.00
2018-08-30T20:35:58.387Z,10.43
2018-08-30T20:38:27.832Z,6.60
2018-08-30T20:40:57.400Z,8.90
2018-08-30T20:43:26.794Z,10.93
2018-08-30T20:45:56.283Z,8.10
2018-08-30T20:48:25.769Z,5.93
2018-08-30T20:50:55.200Z,12.77
2018-08-30T20:53:24.782Z,11.83
2018-08-30T20:55:54.246Z,10.73
2018-08-30T20:58:23.660Z,6.30
2018-08-30T21:00:53.593Z,14.53
2018-08-30T21:03:23.548Z,4.20
2018-08-30T21:05:52.901Z,5.53
2018-08-30T21:08:22.403Z,9.30
2018-08-30T21:10:51.792Z,14.70
2018-08-30T21:13:21.203Z,7.47
2018-08-30T21:15:50.621Z,12.67
2018-08-30T21:18:20.500Z,9.03
2018-08-30T21:20:49.925Z,6.43
2018-08-30T21:23:19.311Z,8.13
2018-08-30T21:25:48.730Z,8.23
2018-08-30T21:28:18.190Z,10.00
2018-08-30T21:30:47.701Z,12.67
2018-08-30T21:33:17.121Z,7.07
2018-08-30T21:35:46.643Z,10.77
2018-08-30T21:38:16.244Z,21.00
2018-08-30T21:40:45.700Z,8.00
2018-08-30T21:43:15.107Z,4.70
2018-08-30T21:45:44.564Z,6.97
2018-08-30T21:48:13.966Z,6.50
2018-08-30T21:50:43.885Z,6.20
2018-08-30T21:53:13.278Z,9.40
2018-08-30T21:55:42.667Z,7.63
2018-08-30T21:58:12.111Z,11.17
2018-08-30T22:00:41.772Z,10.87
2018-08-30T22:03:11.253Z,5.53
2018-08-30T22:05:40.695Z,8.17
2018-08-30T22:08:10.111Z,8.27
2018-08-30T22:10:39.548Z,9.50
2018-08-30T22:13:08.901Z,7.10
2018-08-30T22:15:38.450Z,5.80
2018-08-30T22:18:08.363Z,15.53
2018-08-30T22:20:37.752Z,13.27
2018-08-30T22:23:07.298Z,13.57
2018-08-30T22:25:36.711Z,5.43
2018-08-30T22:28:06.526Z,13.60
2018-08-30T22:30:35.876Z,4.17
2018-08-30T22:33:05.413Z,5.90
2018-08-30T22:35:35.324Z,4.80
2018-08-30T22:38:05.287Z,6.17
2018-08-30T22:40:34.692Z,15.70
2018-08-30T22:43:04.115Z,7.47
2018-08-30T22:45:33.521Z,4.70
2018-08-30T22:48:02.907Z,6.23
2018-08-30T22:50:32.354Z,16.47
2018-08-30T22:53:02.297Z,3.70
2018-08-30T22:55:31.786Z,5.50
2018-08-30T22:58:01.153Z,7.00
2018-08-30T23:00:30.616Z,4.70
2018-08-30T23:02:59.979Z,8.13
2018-08-30T23:05:29.389Z,8.63
2018-08-30T23:07:59.291Z,9.13
2018-08-30T23:10:29.284Z,6.30
2018-08-30T23:12:58.887Z,8.90
2018-08-30T23:15:28.423Z,9.63
2018-08-30T23:17:57.839Z,5.70
2018-08-30T23:20:27.371Z,3.80
2018-08-30T23:22:56.848Z,8.17
2018-08-30T23:25:30.459Z,6.00
2018-08-30T23:27:59.993Z,7.10
2018-08-30T23:30:29.409Z,7.80
2018-08-30T23:32:58.811Z,9.50
2018-08-30T23:35:28.723Z,9.40
2018-08-30T23:37:58.172Z,14.90
2018-08-30T23:40:27.600Z,9.23
2018-08-30T23:42:57.047Z,5.20
2018-08-30T23:45:26.472Z,10.93
2018-08-30T23:47:55.839Z,7.77
2018-08-30T23:50:25.323Z,10.07
2018-08-30T23:52:54.910Z,8.40
2018-08-30T23:55:24.390Z,4.60
2018-08-30T23:58:10.593Z,9.00
